sensor_id;sensor_type;location;lat;lon;timestamp;temperature;humidity
59007;DHT22;44792;52.760;6.726;2022-10-15T00:00:43;12.50;99.90
59007;DHT22;44792;52.760;6.726;2022-10-15T00:03:09;12.50;99.90
59007;DHT22;44792;52.760;6.726;2022-10-15T00:05:41;12.40;99.90
59007;DHT22;44792;52.760;6.726;2022-10-15T00:08:08;12.40;99.90
59007;DHT22;44792;52.760;6.726;2022-10-15T00:10:35;12.40;99.90
59007;DHT22;44792;52.760;6.726;2022-10-15T00:13:01;12.30;99.90
59007;DHT22;44792;52.760;6.726;2022-10-15T00:15:27;12.30;99.90
59007;DHT22;44792;52.760;6.726;2022-10-15T00:17:54;12.30;99.90
59007;DHT22;44792;52.760;6.726;2022-10-15T00:20:19;12.30;99.90
59007;DHT22;44792;52.760;6.726;2022-10-15T00:22:45;12.30;99.90
59007;DHT22;44792;52.760;6.726;2022-10-15T00:25:11;12.40;99.90
59007;DHT22;44792;52.760;6.726;2022-10-15T00:27:36;12.30;99.90
59007;DHT22;44792;52.760;6.726;2022-10-15T00:30:04;12.30;99.90
59007;DHT22;44792;52.760;6.726;2022-10-15T00:32:30;12.30;99.90
59007;DHT22;44792;52.760;6.726;2022-10-15T00:34:56;12.30;99.90
59007;DHT22;44792;52.760;6.726;2022-10-15T00:37:22;12.30;99.90
59007;DHT22;44792;52.760;6.726;2022-10-15T00:39:48;12.30;99.90
59007;DHT22;44792;52.760;6.726;2022-10-15T00:42:13;12.30;99.90
59007;DHT22;44792;52.760;6.726;2022-10-15T00:44:56;12.30;99.90
59007;DHT22;44792;52.760;6.726;2022-10-15T00:47:34;12.30;99.90
59007;DHT22;44792;52.760;6.726;2022-10-15T00:50:04;12.30;99.90
59007;DHT22;44792;52.760;6.726;2022-10-15T00:55:30;12.30;99.90
59007;DHT22;44792;52.760;6.726;2022-10-15T00:58:01;12.30;99.90
59007;DHT22;44792;52.760;6.726;2022-10-15T01:00:29;12.30;99.90
59007;DHT22;44792;52.760;6.726;2022-10-15T01:02:55;12.20;99.90
59007;DHT22;44792;52.760;6.726;2022-10-15T01:05:21;12.30;99.90
59007;DHT22;44792;52.760;6.726;2022-10-15T01:07:47;12.20;99.90
59007;DHT22;44792;52.760;6.726;2022-10-15T01:10:13;12.20;99.90
59007;DHT22;44792;52.760;6.726;2022-10-15T01:18:13;12.20;99.90
59007;DHT22;44792;52.760;6.726;2022-10-15T01:28:42;12.20;99.90
59007;DHT22;44792;52.760;6.726;2022-10-15T01:31:42;12.20;99.90
59007;DHT22;44792;52.760;6.726;2022-10-15T01:34:19;12.20;99.90
59007;DHT22;44792;52.760;6.726;2022-10-15T01:39:56;12.10;99.90
59007;DHT22;44792;52.760;6.726;2022-10-15T01:42:30;12.20;99.90
59007;DHT22;44792;52.760;6.726;2022-10-15T01:45:06;12.10;99.90
59007;DHT22;44792;52.760;6.726;2022-10-15T01:47:49;12.20;99.90
59007;DHT22;44792;52.760;6.726;2022-10-15T01:50:22;12.20;99.90
59007;DHT22;44792;52.760;6.726;2022-10-15T01:52:49;12.10;99.90
59007;DHT22;44792;52.760;6.726;2022-10-15T01:55:17;12.10;99.90
59007;DHT22;44792;52.760;6.726;2022-10-15T01:57:45;12.10;99.90
59007;DHT22;44792;52.760;6.726;2022-10-15T02:00:11;12.10;99.90
59007;DHT22;44792;52.760;6.726;2022-10-15T02:02:38;12.10;99.90
59007;DHT22;44792;52.760;6.726;2022-10-15T02:05:06;12.10;99.90
59007;DHT22;44792;52.760;6.726;2022-10-15T02:13:41;12.10;99.90
59007;DHT22;44792;52.760;6.726;2022-10-15T02:19:17;12.10;99.90
59007;DHT22;44792;52.760;6.726;2022-10-15T02:21:52;12.10;99.90
59007;DHT22;44792;52.760;6.726;2022-10-15T02:24:26;12.10;99.90
59007;DHT22;44792;52.760;6.726;2022-10-15T02:26:56;12.10;99.90
59007;DHT22;44792;52.760;6.726;2022-10-15T02:29:24;12.00;99.90
59007;DHT22;44792;52.760;6.726;2022-10-15T02:31:52;12.00;99.90
59007;DHT22;44792;52.760;6.726;2022-10-15T02:34:20;12.00;99.90
59007;DHT22;44792;52.760;6.726;2022-10-15T02:36:46;12.10;99.90
59007;DHT22;44792;52.760;6.726;2022-10-15T02:39:17;12.00;99.90
59007;DHT22;44792;52.760;6.726;2022-10-15T02:41:44;12.00;99.90
59007;DHT22;44792;52.760;6.726;2022-10-15T02:44:11;12.10;99.90
59007;DHT22;44792;52.760;6.726;2022-10-15T02:46:36;12.10;99.90
59007;DHT22;44792;52.760;6.726;2022-10-15T02:49:02;12.10;99.90
59007;DHT22;44792;52.760;6.726;2022-10-15T02:51:31;12.10;99.90
59007;DHT22;44792;52.760;6.726;2022-10-15T02:53:57;12.00;99.90
59007;DHT22;44792;52.760;6.726;2022-10-15T02:56:22;12.00;99.90
59007;DHT22;44792;52.760;6.726;2022-10-15T02:58:48;12.00;99.90
59007;DHT22;44792;52.760;6.726;2022-10-15T03:01:13;12.00;99.90
59007;DHT22;44792;52.760;6.726;2022-10-15T03:03:39;12.00;99.90
59007;DHT22;44792;52.760;6.726;2022-10-15T03:06:04;12.00;99.90
59007;DHT22;44792;52.760;6.726;2022-10-15T03:08:30;12.00;99.90
59007;DHT22;44792;52.760;6.726;2022-10-15T03:10:59;12.00;99.90
59007;DHT22;44792;52.760;6.726;2022-10-15T03:13:26;12.00;99.90
59007;DHT22;44792;52.760;6.726;2022-10-15T03:15:51;12.00;99.90
59007;DHT22;44792;52.760;6.726;2022-10-15T03:18:17;12.00;99.90
59007;DHT22;44792;52.760;6.726;2022-10-15T03:20:43;12.00;99.90
59007;DHT22;44792;52.760;6.726;2022-10-15T03:23:08;12.00;99.90
59007;DHT22;44792;52.760;6.726;2022-10-15T03:25:34;12.00;99.90
59007;DHT22;44792;52.760;6.726;2022-10-15T03:27:59;12.00;99.90
59007;DHT22;44792;52.760;6.726;2022-10-15T03:30:25;12.00;99.90
59007;DHT22;44792;52.760;6.726;2022-10-15T03:32:50;12.00;99.90
59007;DHT22;44792;52.760;6.726;2022-10-15T03:35:16;12.00;99.90
59007;DHT22;44792;52.760;6.726;2022-10-15T03:37:41;12.00;99.90
59007;DHT22;44792;52.760;6.726;2022-10-15T03:40:07;12.00;99.90
59007;DHT22;44792;52.760;6.726;2022-10-15T03:42:33;12.00;99.90
59007;DHT22;44792;52.760;6.726;2022-10-15T03:44:59;12.00;99.90
59007;DHT22;44792;52.760;6.726;2022-10-15T03:47:24;12.00;99.90
59007;DHT22;44792;52.760;6.726;2022-10-15T03:49:50;12.00;99.90
59007;DHT22;44792;52.760;6.726;2022-10-15T03:52:16;12.00;99.90
59007;DHT22;44792;52.760;6.726;2022-10-15T03:54:41;12.00;99.90
59007;DHT22;44792;52.760;6.726;2022-10-15T03:57:07;11.90;99.90
59007;DHT22;44792;52.760;6.726;2022-10-15T03:59:32;11.90;99.90
59007;DHT22;44792;52.760;6.726;2022-10-15T04:01:58;11.90;99.90
59007;DHT22;44792;52.760;6.726;2022-10-15T04:04:24;11.90;99.90
59007;DHT22;44792;52.760;6.726;2022-10-15T04:06:49;11.90;99.90
59007;DHT22;44792;52.760;6.726;2022-10-15T04:09:15;11.90;99.90
59007;DHT22;44792;52.760;6.726;2022-10-15T04:11:40;11.90;99.90
59007;DHT22;44792;52.760;6.726;2022-10-15T04:14:06;11.90;99.90
59007;DHT22;44792;52.760;6.726;2022-10-15T04:16:32;11.90;99.90
59007;DHT22;44792;52.760;6.726;2022-10-15T04:18:58;11.90;99.90
59007;DHT22;44792;52.760;6.726;2022-10-15T04:21:24;11.90;99.90
59007;DHT22;44792;52.760;6.726;2022-10-15T04:23:50;11.90;99.90
59007;DHT22;44792;52.760;6.726;2022-10-15T04:26:15;11.90;99.90
59007;DHT22;44792;52.760;6.726;2022-10-15T04:28:41;11.90;99.90
59007;DHT22;44792;52.760;6.726;2022-10-15T04:31:07;11.90;99.90
59007;DHT22;44792;52.760;6.726;2022-10-15T04:33:33;11.90;99.90
59007;DHT22;44792;52.760;6.726;2022-10-15T04:36:00;11.80;99.90
59007;DHT22;44792;52.760;6.726;2022-10-15T04:38:26;11.80;99.90
59007;DHT22;44792;52.760;6.726;2022-10-15T04:41:03;11.70;99.90
59007;DHT22;44792;52.760;6.726;2022-10-15T04:43:29;11.70;99.90
59007;DHT22;44792;52.760;6.726;2022-10-15T04:45:56;11.70;99.90
59007;DHT22;44792;52.760;6.726;2022-10-15T04:48:22;11.70;99.90
59007;DHT22;44792;52.760;6.726;2022-10-15T04:50:48;11.60;99.90
59007;DHT22;44792;52.760;6.726;2022-10-15T04:53:13;11.60;99.90
59007;DHT22;44792;52.760;6.726;2022-10-15T04:55:39;11.60;99.90
59007;DHT22;44792;52.760;6.726;2022-10-15T04:58:04;11.60;99.90
59007;DHT22;44792;52.760;6.726;2022-10-15T05:00:30;11.60;99.90
59007;DHT22;44792;52.760;6.726;2022-10-15T05:02:55;11.60;99.90
59007;DHT22;44792;52.760;6.726;2022-10-15T05:05:21;11.60;99.90
59007;DHT22;44792;52.760;6.726;2022-10-15T05:07:46;11.50;99.90
59007;DHT22;44792;52.760;6.726;2022-10-15T05:10:12;11.60;99.90
59007;DHT22;44792;52.760;6.726;2022-10-15T05:12:37;11.60;99.90
59007;DHT22;44792;52.760;6.726;2022-10-15T05:15:03;11.60;99.90
59007;DHT22;44792;52.760;6.726;2022-10-15T05:17:29;11.50;99.90
59007;DHT22;44792;52.760;6.726;2022-10-15T05:19:55;11.60;99.90
59007;DHT22;44792;52.760;6.726;2022-10-15T05:22:20;11.60;99.90
59007;DHT22;44792;52.760;6.726;2022-10-15T05:24:46;11.50;99.90
59007;DHT22;44792;52.760;6.726;2022-10-15T05:27:11;11.60;99.90
59007;DHT22;44792;52.760;6.726;2022-10-15T05:29:37;11.50;99.90
59007;DHT22;44792;52.760;6.726;2022-10-15T05:32:04;11.50;99.90
59007;DHT22;44792;52.760;6.726;2022-10-15T05:34:30;11.50;99.90
59007;DHT22;44792;52.760;6.726;2022-10-15T05:36:55;11.60;99.90
59007;DHT22;44792;52.760;6.726;2022-10-15T05:39:21;11.50;99.90
59007;DHT22;44792;52.760;6.726;2022-10-15T05:41:46;11.50;99.90
59007;DHT22;44792;52.760;6.726;2022-10-15T05:44:12;11.60;99.90
59007;DHT22;44792;52.760;6.726;2022-10-15T05:46:38;11.50;99.90
59007;DHT22;44792;52.760;6.726;2022-10-15T05:49:03;11.50;99.90
59007;DHT22;44792;52.760;6.726;2022-10-15T05:51:29;11.50;99.90
59007;DHT22;44792;52.760;6.726;2022-10-15T05:53:56;11.60;99.90
59007;DHT22;44792;52.760;6.726;2022-10-15T05:56:22;11.60;99.90
59007;DHT22;44792;52.760;6.726;2022-10-15T05:58:48;11.60;99.90
59007;DHT22;44792;52.760;6.726;2022-10-15T06:01:14;11.60;99.90
59007;DHT22;44792;52.760;6.726;2022-10-15T06:03:41;11.60;99.90
59007;DHT22;44792;52.760;6.726;2022-10-15T06:06:33;11.60;99.90
59007;DHT22;44792;52.760;6.726;2022-10-15T06:08:59;11.60;99.90
59007;DHT22;44792;52.760;6.726;2022-10-15T06:11:26;11.60;99.90
59007;DHT22;44792;52.760;6.726;2022-10-15T06:13:51;11.60;99.90
59007;DHT22;44792;52.760;6.726;2022-10-15T06:16:17;11.60;99.90
59007;DHT22;44792;52.760;6.726;2022-10-15T06:18:43;11.60;99.90
59007;DHT22;44792;52.760;6.726;2022-10-15T06:21:09;11.70;99.90
59007;DHT22;44792;52.760;6.726;2022-10-15T06:23:35;11.70;99.90
59007;DHT22;44792;52.760;6.726;2022-10-15T06:26:04;11.60;99.90
59007;DHT22;44792;52.760;6.726;2022-10-15T06:28:30;11.70;99.90
59007;DHT22;44792;52.760;6.726;2022-10-15T06:30:59;11.70;99.90
59007;DHT22;44792;52.760;6.726;2022-10-15T06:33:26;11.70;99.90
59007;DHT22;44792;52.760;6.726;2022-10-15T06:35:51;11.80;99.90
59007;DHT22;44792;52.760;6.726;2022-10-15T06:38:17;11.70;99.90
59007;DHT22;44792;52.760;6.726;2022-10-15T06:40:42;11.80;99.90
59007;DHT22;44792;52.760;6.726;2022-10-15T06:43:10;11.80;99.90
59007;DHT22;44792;52.760;6.726;2022-10-15T06:45:37;11.80;99.90
59007;DHT22;44792;52.760;6.726;2022-10-15T06:48:04;11.90;99.90
59007;DHT22;44792;52.760;6.726;2022-10-15T06:50:31;11.90;99.90
59007;DHT22;44792;52.760;6.726;2022-10-15T06:52:57;12.00;99.90
59007;DHT22;44792;52.760;6.726;2022-10-15T06:55:22;12.00;99.90
59007;DHT22;44792;52.760;6.726;2022-10-15T06:57:48;12.00;99.90
59007;DHT22;44792;52.760;6.726;2022-10-15T07:00:15;12.00;99.90
59007;DHT22;44792;52.760;6.726;2022-10-15T07:02:41;12.00;99.90
59007;DHT22;44792;52.760;6.726;2022-10-15T07:05:07;12.00;99.90
59007;DHT22;44792;52.760;6.726;2022-10-15T07:07:33;12.10;99.90
59007;DHT22;44792;52.760;6.726;2022-10-15T07:09:58;12.10;99.90
59007;DHT22;44792;52.760;6.726;2022-10-15T07:12:24;12.20;99.90
59007;DHT22;44792;52.760;6.726;2022-10-15T07:14:49;12.10;99.90
59007;DHT22;44792;52.760;6.726;2022-10-15T07:17:15;12.10;99.90
59007;DHT22;44792;52.760;6.726;2022-10-15T07:19:41;12.10;99.90
59007;DHT22;44792;52.760;6.726;2022-10-15T07:22:08;12.20;99.90
59007;DHT22;44792;52.760;6.726;2022-10-15T07:24:33;12.10;99.90
59007;DHT22;44792;52.760;6.726;2022-10-15T07:26:59;12.20;99.90
59007;DHT22;44792;52.760;6.726;2022-10-15T07:29:24;12.20;99.90
59007;DHT22;44792;52.760;6.726;2022-10-15T07:31:50;12.20;99.90
59007;DHT22;44792;52.760;6.726;2022-10-15T07:34:15;12.20;99.90
59007;DHT22;44792;52.760;6.726;2022-10-15T07:36:41;12.30;99.90
59007;DHT22;44792;52.760;6.726;2022-10-15T07:39:08;12.30;99.90
59007;DHT22;44792;52.760;6.726;2022-10-15T07:41:33;12.30;99.90
59007;DHT22;44792;52.760;6.726;2022-10-15T07:43:59;12.40;99.90
59007;DHT22;44792;52.760;6.726;2022-10-15T07:46:24;12.30;99.90
59007;DHT22;44792;52.760;6.726;2022-10-15T07:48:50;12.40;99.90
59007;DHT22;44792;52.760;6.726;2022-10-15T07:51:16;12.40;99.90
59007;DHT22;44792;52.760;6.726;2022-10-15T07:53:41;12.40;99.90
59007;DHT22;44792;52.760;6.726;2022-10-15T07:56:10;12.40;99.90
59007;DHT22;44792;52.760;6.726;2022-10-15T07:58:37;12.40;99.90
59007;DHT22;44792;52.760;6.726;2022-10-15T08:01:07;12.50;99.90
59007;DHT22;44792;52.760;6.726;2022-10-15T08:03:33;12.50;99.90
59007;DHT22;44792;52.760;6.726;2022-10-15T08:06:00;12.50;99.90
59007;DHT22;44792;52.760;6.726;2022-10-15T08:08:26;12.50;99.90
59007;DHT22;44792;52.760;6.726;2022-10-15T08:10:52;12.60;99.90
59007;DHT22;44792;52.760;6.726;2022-10-15T08:13:18;12.60;99.90
59007;DHT22;44792;52.760;6.726;2022-10-15T08:15:43;12.70;99.90
59007;DHT22;44792;52.760;6.726;2022-10-15T08:18:09;12.70;99.90
59007;DHT22;44792;52.760;6.726;2022-10-15T08:20:36;12.70;99.90
59007;DHT22;44792;52.760;6.726;2022-10-15T08:23:01;12.70;99.90
59007;DHT22;44792;52.760;6.726;2022-10-15T08:25:28;12.70;99.90
59007;DHT22;44792;52.760;6.726;2022-10-15T08:27:53;12.80;99.90
59007;DHT22;44792;52.760;6.726;2022-10-15T08:30:20;12.80;99.90
59007;DHT22;44792;52.760;6.726;2022-10-15T08:32:46;12.80;99.90
59007;DHT22;44792;52.760;6.726;2022-10-15T08:35:11;12.90;99.90
59007;DHT22;44792;52.760;6.726;2022-10-15T08:37:37;12.90;99.90
59007;DHT22;44792;52.760;6.726;2022-10-15T08:40:04;12.90;99.90
59007;DHT22;44792;52.760;6.726;2022-10-15T08:42:36;13.00;99.90
59007;DHT22;44792;52.760;6.726;2022-10-15T08:45:13;13.00;99.90
59007;DHT22;44792;52.760;6.726;2022-10-15T08:47:47;13.00;99.90
59007;DHT22;44792;52.760;6.726;2022-10-15T08:52:59;13.10;99.90
59007;DHT22;44792;52.760;6.726;2022-10-15T08:55:28;13.10;99.90
59007;DHT22;44792;52.760;6.726;2022-10-15T09:00:52;13.10;99.90
59007;DHT22;44792;52.760;6.726;2022-10-15T09:06:22;13.10;99.90
59007;DHT22;44792;52.760;6.726;2022-10-15T09:14:30;13.00;99.90
59007;DHT22;44792;52.760;6.726;2022-10-15T09:17:00;13.00;99.90
59007;DHT22;44792;52.760;6.726;2022-10-15T09:19:28;12.90;99.90
59007;DHT22;44792;52.760;6.726;2022-10-15T09:21:54;12.90;99.90
59007;DHT22;44792;52.760;6.726;2022-10-15T09:24:26;12.90;99.90
59007;DHT22;44792;52.760;6.726;2022-10-15T09:32:58;12.90;99.90
59007;DHT22;44792;52.760;6.726;2022-10-15T09:35:33;12.90;99.90
59007;DHT22;44792;52.760;6.726;2022-10-15T09:38:22;12.90;99.90
59007;DHT22;44792;52.760;6.726;2022-10-15T09:41:04;12.90;99.90
59007;DHT22;44792;52.760;6.726;2022-10-15T09:43:36;12.90;99.90
59007;DHT22;44792;52.760;6.726;2022-10-15T09:46:03;12.90;99.90
59007;DHT22;44792;52.760;6.726;2022-10-15T09:48:32;13.00;99.90
59007;DHT22;44792;52.760;6.726;2022-10-15T09:51:15;13.00;99.90
59007;DHT22;44792;52.760;6.726;2022-10-15T09:53:48;13.00;99.90
59007;DHT22;44792;52.760;6.726;2022-10-15T09:56:23;13.00;99.90
59007;DHT22;44792;52.760;6.726;2022-10-15T09:58:53;13.00;99.90
59007;DHT22;44792;52.760;6.726;2022-10-15T10:01:24;13.00;99.90
59007;DHT22;44792;52.760;6.726;2022-10-15T10:03:52;13.10;99.90
59007;DHT22;44792;52.760;6.726;2022-10-15T10:06:20;13.10;99.90
59007;DHT22;44792;52.760;6.726;2022-10-15T10:08:50;13.10;99.90
59007;DHT22;44792;52.760;6.726;2022-10-15T10:11:17;13.20;99.90
59007;DHT22;44792;52.760;6.726;2022-10-15T10:13:50;13.20;99.90
59007;DHT22;44792;52.760;6.726;2022-10-15T10:16:18;13.30;99.90
59007;DHT22;44792;52.760;6.726;2022-10-15T10:19:21;13.40;99.90
59007;DHT22;44792;52.760;6.726;2022-10-15T10:21:46;13.50;99.90
59007;DHT22;44792;52.760;6.726;2022-10-15T10:24:26;13.50;99.90
59007;DHT22;44792;52.760;6.726;2022-10-15T10:26:54;13.50;99.90
59007;DHT22;44792;52.760;6.726;2022-10-15T10:29:21;13.60;99.90
59007;DHT22;44792;52.760;6.726;2022-10-15T10:31:48;13.60;99.90
59007;DHT22;44792;52.760;6.726;2022-10-15T10:34:22;13.70;99.90
59007;DHT22;44792;52.760;6.726;2022-10-15T10:36:50;13.80;99.90
59007;DHT22;44792;52.760;6.726;2022-10-15T10:39:31;13.90;99.90
59007;DHT22;44792;52.760;6.726;2022-10-15T10:41:59;13.90;99.90
59007;DHT22;44792;52.760;6.726;2022-10-15T10:44:30;13.90;99.90
59007;DHT22;44792;52.760;6.726;2022-10-15T10:47:18;13.90;99.90
59007;DHT22;44792;52.760;6.726;2022-10-15T10:49:55;14.00;99.90
59007;DHT22;44792;52.760;6.726;2022-10-15T10:52:25;14.00;99.90
59007;DHT22;44792;52.760;6.726;2022-10-15T10:55:01;14.00;99.90
59007;DHT22;44792;52.760;6.726;2022-10-15T11:00:02;14.10;99.90
59007;DHT22;44792;52.760;6.726;2022-10-15T11:02:28;14.10;99.90
59007;DHT22;44792;52.760;6.726;2022-10-15T11:04:54;14.20;99.90
59007;DHT22;44792;52.760;6.726;2022-10-15T11:07:40;14.20;99.90
59007;DHT22;44792;52.760;6.726;2022-10-15T11:10:51;14.20;99.90
59007;DHT22;44792;52.760;6.726;2022-10-15T11:16:06;14.10;99.90
59007;DHT22;44792;52.760;6.726;2022-10-15T11:24:39;14.10;99.90
59007;DHT22;44792;52.760;6.726;2022-10-15T11:41:50;14.30;99.90
59007;DHT22;44792;52.760;6.726;2022-10-15T11:44:25;14.30;99.90
59007;DHT22;44792;52.760;6.726;2022-10-15T11:47:20;14.30;99.90
59007;DHT22;44792;52.760;6.726;2022-10-15T11:50:17;14.30;99.90
59007;DHT22;44792;52.760;6.726;2022-10-15T11:55:18;14.40;99.90
59007;DHT22;44792;52.760;6.726;2022-10-15T11:57:48;14.40;99.90
59007;DHT22;44792;52.760;6.726;2022-10-15T12:00:32;14.40;99.90
59007;DHT22;44792;52.760;6.726;2022-10-15T12:03:05;14.50;99.90
59007;DHT22;44792;52.760;6.726;2022-10-15T12:05:36;14.50;99.90
59007;DHT22;44792;52.760;6.726;2022-10-15T12:08:03;14.50;99.90
59007;DHT22;44792;52.760;6.726;2022-10-15T12:11:02;14.50;99.90
59007;DHT22;44792;52.760;6.726;2022-10-15T12:13:39;14.60;99.90
59007;DHT22;44792;52.760;6.726;2022-10-15T12:16:13;14.60;99.90
59007;DHT22;44792;52.760;6.726;2022-10-15T12:19:07;14.60;99.90
59007;DHT22;44792;52.760;6.726;2022-10-15T12:27:15;14.60;99.90
59007;DHT22;44792;52.760;6.726;2022-10-15T12:30:10;14.60;99.90
59007;DHT22;44792;52.760;6.726;2022-10-15T12:32:44;14.60;99.90
59007;DHT22;44792;52.760;6.726;2022-10-15T12:37:42;14.60;99.90
59007;DHT22;44792;52.760;6.726;2022-10-15T12:43:04;14.60;99.90
59007;DHT22;44792;52.760;6.726;2022-10-15T12:45:59;14.70;99.90
59007;DHT22;44792;52.760;6.726;2022-10-15T12:48:38;14.70;99.90
59007;DHT22;44792;52.760;6.726;2022-10-15T12:53:42;14.70;99.90
59007;DHT22;44792;52.760;6.726;2022-10-15T12:58:41;14.60;99.90
59007;DHT22;44792;52.760;6.726;2022-10-15T13:06:14;14.60;99.90
59007;DHT22;44792;52.760;6.726;2022-10-15T13:08:45;14.70;99.90
59007;DHT22;44792;52.760;6.726;2022-10-15T13:11:20;14.70;99.90
59007;DHT22;44792;52.760;6.726;2022-10-15T13:13:48;14.70;99.90
59007;DHT22;44792;52.760;6.726;2022-10-15T13:16:15;14.70;99.90
59007;DHT22;44792;52.760;6.726;2022-10-15T13:18:48;14.70;99.90
59007;DHT22;44792;52.760;6.726;2022-10-15T13:21:14;14.70;99.90
59007;DHT22;44792;52.760;6.726;2022-10-15T13:23:45;14.70;99.90
59007;DHT22;44792;52.760;6.726;2022-10-15T13:26:24;14.70;99.90
59007;DHT22;44792;52.760;6.726;2022-10-15T13:28:56;14.70;99.90
59007;DHT22;44792;52.760;6.726;2022-10-15T13:31:27;14.70;99.90
59007;DHT22;44792;52.760;6.726;2022-10-15T13:33:57;14.70;99.90
59007;DHT22;44792;52.760;6.726;2022-10-15T13:36:31;14.70;99.90
59007;DHT22;44792;52.760;6.726;2022-10-15T13:39:07;14.70;99.90
59007;DHT22;44792;52.760;6.726;2022-10-15T13:41:44;14.70;99.90
59007;DHT22;44792;52.760;6.726;2022-10-15T13:44:23;14.80;99.90
59007;DHT22;44792;52.760;6.726;2022-10-15T13:46:49;14.80;99.90
59007;DHT22;44792;52.760;6.726;2022-10-15T13:49:17;14.80;99.90
59007;DHT22;44792;52.760;6.726;2022-10-15T13:51:49;14.80;99.90
59007;DHT22;44792;52.760;6.726;2022-10-15T13:54:24;14.80;99.90
59007;DHT22;44792;52.760;6.726;2022-10-15T13:56:58;14.80;99.90
59007;DHT22;44792;52.760;6.726;2022-10-15T13:59:27;14.80;99.90
59007;DHT22;44792;52.760;6.726;2022-10-15T14:01:59;14.90;99.90
59007;DHT22;44792;52.760;6.726;2022-10-15T14:04:28;14.90;99.90
59007;DHT22;44792;52.760;6.726;2022-10-15T14:06:59;14.90;99.90
59007;DHT22;44792;52.760;6.726;2022-10-15T14:09:33;14.90;99.90
59007;DHT22;44792;52.760;6.726;2022-10-15T14:12:00;15.00;99.90
59007;DHT22;44792;52.760;6.726;2022-10-15T14:16:53;14.90;99.90
59007;DHT22;44792;52.760;6.726;2022-10-15T14:19:20;15.00;99.90
59007;DHT22;44792;52.760;6.726;2022-10-15T14:21:51;15.00;99.90
59007;DHT22;44792;52.760;6.726;2022-10-15T14:24:22;15.00;99.90
59007;DHT22;44792;52.760;6.726;2022-10-15T14:26:49;15.00;99.90
59007;DHT22;44792;52.760;6.726;2022-10-15T14:29:20;15.00;99.90
59007;DHT22;44792;52.760;6.726;2022-10-15T14:31:47;15.00;99.90
59007;DHT22;44792;52.760;6.726;2022-10-15T14:36:58;15.00;99.90
59007;DHT22;44792;52.760;6.726;2022-10-15T14:39:29;15.00;99.90
59007;DHT22;44792;52.760;6.726;2022-10-15T14:42:04;15.10;99.90
59007;DHT22;44792;52.760;6.726;2022-10-15T14:44:46;15.10;99.90
59007;DHT22;44792;52.760;6.726;2022-10-15T14:47:23;15.10;99.90
59007;DHT22;44792;52.760;6.726;2022-10-15T14:49:53;15.10;99.90
59007;DHT22;44792;52.760;6.726;2022-10-15T14:52:19;15.10;99.90
59007;DHT22;44792;52.760;6.726;2022-10-15T14:55:00;15.10;99.90
59007;DHT22;44792;52.760;6.726;2022-10-15T14:57:31;15.10;99.90
59007;DHT22;44792;52.760;6.726;2022-10-15T14:59:59;15.20;99.90
59007;DHT22;44792;52.760;6.726;2022-10-15T15:02:27;15.20;99.90
59007;DHT22;44792;52.760;6.726;2022-10-15T15:07:37;15.20;99.90
59007;DHT22;44792;52.760;6.726;2022-10-15T15:10:04;15.10;99.90
59007;DHT22;44792;52.760;6.726;2022-10-15T15:12:30;15.10;99.90
59007;DHT22;44792;52.760;6.726;2022-10-15T15:14:57;15.20;99.90
59007;DHT22;44792;52.760;6.726;2022-10-15T15:17:24;15.20;99.90
59007;DHT22;44792;52.760;6.726;2022-10-15T15:19:51;15.10;99.90
59007;DHT22;44792;52.760;6.726;2022-10-15T15:22:32;15.10;99.90
59007;DHT22;44792;52.760;6.726;2022-10-15T15:24:59;15.10;99.90
59007;DHT22;44792;52.760;6.726;2022-10-15T15:27:30;15.20;99.90
59007;DHT22;44792;52.760;6.726;2022-10-15T15:30:02;15.20;99.90
59007;DHT22;44792;52.760;6.726;2022-10-15T15:32:27;15.20;99.90
59007;DHT22;44792;52.760;6.726;2022-10-15T15:34:54;15.20;99.90
59007;DHT22;44792;52.760;6.726;2022-10-15T15:37:23;15.20;99.90
59007;DHT22;44792;52.760;6.726;2022-10-15T15:39:49;15.20;99.90
59007;DHT22;44792;52.760;6.726;2022-10-15T15:42:19;15.20;99.90
59007;DHT22;44792;52.760;6.726;2022-10-15T15:44:46;15.20;99.90
59007;DHT22;44792;52.760;6.726;2022-10-15T15:47:12;15.20;99.90
59007;DHT22;44792;52.760;6.726;2022-10-15T15:49:38;15.20;99.90
59007;DHT22;44792;52.760;6.726;2022-10-15T15:52:06;15.10;99.90
59007;DHT22;44792;52.760;6.726;2022-10-15T15:54:33;15.20;99.90
59007;DHT22;44792;52.760;6.726;2022-10-15T15:56:59;15.20;99.90
59007;DHT22;44792;52.760;6.726;2022-10-15T15:59:24;15.20;99.90
59007;DHT22;44792;52.760;6.726;2022-10-15T16:01:50;15.20;99.90
59007;DHT22;44792;52.760;6.726;2022-10-15T16:04:15;15.10;99.90
59007;DHT22;44792;52.760;6.726;2022-10-15T16:06:41;15.10;99.90
59007;DHT22;44792;52.760;6.726;2022-10-15T16:09:07;15.10;99.90
59007;DHT22;44792;52.760;6.726;2022-10-15T16:11:33;15.10;99.90
59007;DHT22;44792;52.760;6.726;2022-10-15T16:14:01;15.00;99.90
59007;DHT22;44792;52.760;6.726;2022-10-15T16:16:26;15.10;99.90
59007;DHT22;44792;52.760;6.726;2022-10-15T16:18:52;15.00;99.90
59007;DHT22;44792;52.760;6.726;2022-10-15T16:21:22;15.00;99.90
59007;DHT22;44792;52.760;6.726;2022-10-15T16:23:47;15.00;99.90
59007;DHT22;44792;52.760;6.726;2022-10-15T16:26:13;15.00;99.90
59007;DHT22;44792;52.760;6.726;2022-10-15T16:28:38;15.00;99.90
59007;DHT22;44792;52.760;6.726;2022-10-15T16:31:20;15.00;99.90
59007;DHT22;44792;52.760;6.726;2022-10-15T16:33:46;15.00;99.90
59007;DHT22;44792;52.760;6.726;2022-10-15T16:36:12;14.90;99.90
59007;DHT22;44792;52.760;6.726;2022-10-15T16:38:39;14.90;99.90
59007;DHT22;44792;52.760;6.726;2022-10-15T16:41:05;14.90;99.90
59007;DHT22;44792;52.760;6.726;2022-10-15T16:43:32;14.80;99.90
59007;DHT22;44792;52.760;6.726;2022-10-15T16:45:58;14.80;99.90
59007;DHT22;44792;52.760;6.726;2022-10-15T16:48:24;14.80;99.90
59007;DHT22;44792;52.760;6.726;2022-10-15T16:51:02;14.80;99.90
59007;DHT22;44792;52.760;6.726;2022-10-15T16:53:29;14.80;99.90
59007;DHT22;44792;52.760;6.726;2022-10-15T16:56:10;14.70;99.90
59007;DHT22;44792;52.760;6.726;2022-10-15T16:58:36;14.70;99.90
59007;DHT22;44792;52.760;6.726;2022-10-15T17:01:08;14.70;99.90
59007;DHT22;44792;52.760;6.726;2022-10-15T17:03:36;14.70;99.90
59007;DHT22;44792;52.760;6.726;2022-10-15T17:06:05;14.70;99.90
59007;DHT22;44792;52.760;6.726;2022-10-15T17:08:52;14.70;99.90
59007;DHT22;44792;52.760;6.726;2022-10-15T17:11:26;14.70;99.90
59007;DHT22;44792;52.760;6.726;2022-10-15T17:13:55;14.60;99.90
59007;DHT22;44792;52.760;6.726;2022-10-15T17:16:24;14.60;99.90
59007;DHT22;44792;52.760;6.726;2022-10-15T17:18:50;14.60;99.90
59007;DHT22;44792;52.760;6.726;2022-10-15T17:21:21;14.60;99.90
59007;DHT22;44792;52.760;6.726;2022-10-15T17:23:49;14.50;99.90
59007;DHT22;44792;52.760;6.726;2022-10-15T17:26:18;14.50;99.90
59007;DHT22;44792;52.760;6.726;2022-10-15T17:28:45;14.40;99.90